createdAt,value
2022-09-25T00:01:24.585Z,93.40
2022-09-25T00:03:51.182Z,85.77
2022-09-25T00:06:18.987Z,95.93
2022-09-25T00:08:45.566Z,73.23
2022-09-25T00:11:13.541Z,74.93
2022-09-25T00:13:40.587Z,74.57
2022-09-25T00:16:10.069Z,80.97
2022-09-25T00:18:55.307Z,63.30
2022-09-25T00:21:22.123Z,62.47
2022-09-25T00:23:49.290Z,66.10
2022-09-25T00:26:16.462Z,59.57
2022-09-25T00:28:43.370Z,63.33
2022-09-25T00:31:10.434Z,51.27
2022-09-25T00:33:37.177Z,46.87
2022-09-25T00:36:06.405Z,56.43
2022-09-25T00:38:35.711Z,49.67
2022-09-25T00:41:02.838Z,57.50
2022-09-25T00:43:52.635Z,45.83
2022-09-25T00:46:24.383Z,51.90
2022-09-25T00:49:03.349Z,52.27
2022-09-25T00:51:54.503Z,46.20
2022-09-25T00:54:36.492Z,69.17
2022-09-25T00:57:05.639Z,64.63
2022-09-25T00:59:39.812Z,60.53
2022-09-25T01:02:07.602Z,57.93
2022-09-25T01:04:35.215Z,64.17
2022-09-25T01:07:02.987Z,55.93
2022-09-25T01:09:29.823Z,64.03
2022-09-25T01:11:56.911Z,76.33
2022-09-25T01:14:23.632Z,68.60
2022-09-25T01:16:50.199Z,65.80
2022-09-25T01:19:26.088Z,54.47
2022-09-25T01:22:09.261Z,68.93
2022-09-25T01:24:35.827Z,49.73
2022-09-25T01:27:11.570Z,45.03
2022-09-25T01:29:38.054Z,51.23
2022-09-25T01:32:04.601Z,47.90
2022-09-25T01:34:31.321Z,53.80
2022-09-25T01:37:05.871Z,52.43
2022-09-25T01:39:34.871Z,41.00
2022-09-25T01:42:27.635Z,42.07
2022-09-25T01:44:57.171Z,55.73
2022-09-25T01:47:28.164Z,45.80
2022-09-25T01:49:57.752Z,48.83
2022-09-25T01:52:27.173Z,40.97
2022-09-25T01:54:56.634Z,49.63
2022-09-25T01:57:49.653Z,38.40
2022-09-25T02:00:19.162Z,39.00
2022-09-25T02:02:48.259Z,42.10
2022-09-25T02:05:14.796Z,31.00
2022-09-25T02:07:43.782Z,29.50
2022-09-25T02:10:14.300Z,37.07
2022-09-25T02:12:47.003Z,26.57
2022-09-25T02:15:16.381Z,38.93
2022-09-25T02:18:12.729Z,31.67
2022-09-25T02:20:42.423Z,36.30
2022-09-25T02:23:11.949Z,33.33
2022-09-25T02:25:42.766Z,28.63
2022-09-25T02:28:09.951Z,23.23
2022-09-25T02:30:36.558Z,27.57
2022-09-25T02:33:03.287Z,29.57
2022-09-25T02:35:30.259Z,29.27
2022-09-25T02:37:57.220Z,30.57
2022-09-25T02:40:26.857Z,37.17
2022-09-25T02:43:00.553Z,19.00
2022-09-25T02:45:27.186Z,23.23
2022-09-25T02:48:08.947Z,40.07
2022-09-25T02:50:41.797Z,34.53
2022-09-25T02:53:11.587Z,29.83
2022-09-25T02:55:45.351Z,28.00
2022-09-25T02:58:32.346Z,26.03
2022-09-25T03:01:00.447Z,28.50
2022-09-25T03:03:28.009Z,31.37
2022-09-25T03:05:57.864Z,41.20
2022-09-25T03:08:43.682Z,25.30
2022-09-25T03:11:15.561Z,33.33
2022-09-25T03:13:42.566Z,34.20
2022-09-25T03:16:28.144Z,38.70
2022-09-25T03:18:54.901Z,33.43
2022-09-25T03:21:21.450Z,36.37
2022-09-25T03:23:47.901Z,29.03
2022-09-25T03:26:14.463Z,51.50
2022-09-25T03:28:41.020Z,27.87
2022-09-25T03:31:10.513Z,39.43
2022-09-25T03:33:41.205Z,35.23
2022-09-25T03:36:10.837Z,40.40
2022-09-25T03:38:38.129Z,39.83
2022-09-25T03:41:06.865Z,30.93
2022-09-25T03:43:33.650Z,32.33
2022-09-25T03:46:00.229Z,33.13
2022-09-25T03:48:26.764Z,26.87
2022-09-25T03:50:53.570Z,30.73
2022-09-25T03:53:20.029Z,30.80
2022-09-25T03:55:48.476Z,38.90
2022-09-25T03:58:16.585Z,32.20
2022-09-25T04:00:43.458Z,30.20
2022-09-25T04:03:09.979Z,35.47
2022-09-25T04:05:36.745Z,35.80
2022-09-25T04:08:03.423Z,47.57
2022-09-25T04:10:30.129Z,21.97
2022-09-25T04:12:57.416Z,38.50
2022-09-25T04:15:24.326Z,32.23
2022-09-25T04:17:51.355Z,19.03
2022-09-25T04:20:17.898Z,27.67
2022-09-25T04:22:44.574Z,25.87
2022-09-25T04:25:11.730Z,27.67
2022-09-25T04:27:38.771Z,22.83
2022-09-25T04:30:05.598Z,21.73
2022-09-25T04:32:50.783Z,24.93
2022-09-25T04:35:17.721Z,19.93
2022-09-25T04:37:44.216Z,18.53
2022-09-25T04:40:10.896Z,11.03
2022-09-25T04:42:37.390Z,35.37
2022-09-25T04:45:04.073Z,16.43
2022-09-25T04:47:30.594Z,15.87
2022-09-25T04:49:57.379Z,21.97
2022-09-25T04:52:23.871Z,35.23
2022-09-25T04:54:50.413Z,24.97
2022-09-25T04:57:38.897Z,13.23
2022-09-25T05:00:05.453Z,16.83
2022-09-25T05:02:32.129Z,20.77
2022-09-25T05:04:58.769Z,15.17
2022-09-25T05:07:25.331Z,20.57
2022-09-25T05:09:51.781Z,19.10
2022-09-25T05:12:18.354Z,22.87
2022-09-25T05:14:44.909Z,28.13
2022-09-25T05:17:11.449Z,22.00
2022-09-25T05:19:38.550Z,20.20
2022-09-25T05:22:05.331Z,13.73
2022-09-25T05:24:31.911Z,23.10
2022-09-25T05:26:58.860Z,13.43
2022-09-25T05:29:25.459Z,14.53
2022-09-25T05:31:51.986Z,24.07
2022-09-25T05:34:18.597Z,12.10
2022-09-25T05:36:45.180Z,15.07
2022-09-25T05:39:14.393Z,17.63
2022-09-25T05:41:41.657Z,27.00
2022-09-25T05:44:09.850Z,21.67
2022-09-25T05:46:36.828Z,13.10
2022-09-25T05:49:03.870Z,20.30
2022-09-25T05:51:30.753Z,11.50
2022-09-25T05:53:57.611Z,21.37
2022-09-25T05:56:24.737Z,21.30
2022-09-25T05:58:52.123Z,18.70
2022-09-25T06:01:19.073Z,17.73
2022-09-25T06:03:45.659Z,14.13
2022-09-25T06:06:12.385Z,23.03
2022-09-25T06:08:39.939Z,15.83
2022-09-25T06:11:06.587Z,18.93
2022-09-25T06:13:34.773Z,19.17
2022-09-25T06:16:02.178Z,34.00
2022-09-25T06:18:28.780Z,21.40
2022-09-25T06:21:00.109Z,13.00
2022-09-25T06:23:26.660Z,20.77
2022-09-25T06:25:53.127Z,14.97
2022-09-25T06:28:19.610Z,26.77
2022-09-25T06:30:46.681Z,14.23
2022-09-25T06:33:14.356Z,21.73
2022-09-25T06:35:44.762Z,25.10
2022-09-25T06:38:11.642Z,14.20
2022-09-25T06:40:40.788Z,18.67
2022-09-25T06:43:10.576Z,18.03
2022-09-25T06:45:39.458Z,17.60
2022-09-25T06:48:06.990Z,16.90
2022-09-25T06:50:40.205Z,20.20
2022-09-25T06:53:07.131Z,25.50
2022-09-25T06:55:34.952Z,32.37
2022-09-25T06:58:02.002Z,21.90
2022-09-25T07:00:28.658Z,20.23
2022-09-25T07:03:15.641Z,18.60
2022-09-25T07:05:44.697Z,20.20
2022-09-25T07:08:13.925Z,31.03
2022-09-25T07:10:45.089Z,16.33
2022-09-25T07:13:12.287Z,17.33
2022-09-25T07:15:39.295Z,25.60
2022-09-25T07:18:05.944Z,10.70
2022-09-25T07:20:32.571Z,19.83
2022-09-25T07:23:03.903Z,24.47
2022-09-25T07:25:31.887Z,9.10
2022-09-25T07:27:59.052Z,17.03
2022-09-25T07:30:29.566Z,14.40
2022-09-25T07:32:59.916Z,17.57
2022-09-25T07:35:27.271Z,23.87
2022-09-25T07:38:00.009Z,17.97
2022-09-25T07:40:28.791Z,10.43
2022-09-25T07:43:13.817Z,22.23
2022-09-25T07:45:41.444Z,15.33
2022-09-25T07:48:09.169Z,12.93
2022-09-25T07:50:35.901Z,9.20
2022-09-25T07:53:02.532Z,7.87
2022-09-25T07:55:29.662Z,12.70
2022-09-25T07:57:56.888Z,9.63
2022-09-25T08:00:23.569Z,8.00
2022-09-25T08:02:57.683Z,11.77
2022-09-25T08:05:24.541Z,15.77
2022-09-25T08:07:52.246Z,14.47
2022-09-25T08:10:18.876Z,7.90
2022-09-25T08:12:45.797Z,10.77
2022-09-25T08:15:14.647Z,11.97
2022-09-25T08:17:41.772Z,12.50
2022-09-25T08:20:08.938Z,11.93
2022-09-25T08:22:35.601Z,9.00
2022-09-25T08:25:02.965Z,11.50
2022-09-25T08:27:29.916Z,9.73
2022-09-25T08:29:56.664Z,11.03
2022-09-25T08:32:23.380Z,17.83
2022-09-25T08:34:50.047Z,14.00
2022-09-25T08:37:17.157Z,6.77
2022-09-25T08:39:43.804Z,26.53
2022-09-25T08:42:19.885Z,14.13
2022-09-25T08:45:16.611Z,18.27
2022-09-25T08:47:55.308Z,9.70
2022-09-25T08:50:22.988Z,7.77
2022-09-25T08:53:04.214Z,14.70
2022-09-25T08:55:52.046Z,5.80
2022-09-25T08:58:26.565Z,5.87
2022-09-25T09:00:54.696Z,6.37
2022-09-25T09:03:24.331Z,8.67
2022-09-25T09:05:54.771Z,21.73
2022-09-25T09:08:25.528Z,6.10
2022-09-25T09:10:54.829Z,10.23
2022-09-25T09:13:41.480Z,9.20
2022-09-25T09:16:08.100Z,10.43
2022-09-25T09:18:39.472Z,7.23
2022-09-25T09:21:15.255Z,8.33
2022-09-25T09:24:01.670Z,8.00
2022-09-25T09:26:36.381Z,6.10
2022-09-25T09:29:16.653Z,4.57
2022-09-25T09:32:04.106Z,8.93
2022-09-25T09:34:53.012Z,4.83
2022-09-25T09:37:36.217Z,4.93
2022-09-25T09:40:03.036Z,7.27
2022-09-25T09:42:36.456Z,12.27
2022-09-25T09:45:18.766Z,10.40
2022-09-25T09:47:45.362Z,4.93
2022-09-25T09:50:21.319Z,8.70
2022-09-25T09:52:50.518Z,5.07
2022-09-25T09:55:26.435Z,7.40
2022-09-25T09:57:54.598Z,3.20
2022-09-25T10:00:22.862Z,9.63
2022-09-25T10:03:25.385Z,12.83
2022-09-25T10:05:54.906Z,8.80
2022-09-25T10:08:21.603Z,6.93
2022-09-25T10:10:51.793Z,4.10
2022-09-25T10:13:32.528Z,6.60
2022-09-25T10:16:01.059Z,4.50
2022-09-25T10:18:40.887Z,9.27
2022-09-25T10:21:16.416Z,8.57
2022-09-25T10:23:46.164Z,8.30
2022-09-25T10:26:25.153Z,3.87
2022-09-25T10:28:51.724Z,3.03
2022-09-25T10:31:19.499Z,10.17
2022-09-25T10:34:06.348Z,2.60
2022-09-25T10:36:39.062Z,3.97
2022-09-25T10:39:31.571Z,8.30
2022-09-25T10:41:54.244Z,2.80
2022-09-25T10:44:22.777Z,5.57
2022-09-25T10:47:07.986Z,1.30
2022-09-25T10:50:04.891Z,6.27
2022-09-25T10:52:44.691Z,6.43
2022-09-25T10:55:19.721Z,7.03
2022-09-25T10:57:47.808Z,7.40
2022-09-25T11:00:24.312Z,9.87
2022-09-25T11:02:53.767Z,12.70
2022-09-25T11:05:22.461Z,11.00
2022-09-25T11:07:52.466Z,3.80
2022-09-25T11:10:23.448Z,6.83
2022-09-25T11:12:51.091Z,5.43
2022-09-25T11:15:23.186Z,8.73
2022-09-25T11:17:51.506Z,6.13
2022-09-25T11:20:31.764Z,6.20
2022-09-25T11:23:17.647Z,3.60
2022-09-25T11:25:59.653Z,5.57
2022-09-25T11:28:38.573Z,3.80
2022-09-25T11:31:26.627Z,4.73
2022-09-25T11:33:57.844Z,5.83
2022-09-25T11:36:43.477Z,7.17
2022-09-25T11:39:32.603Z,5.73
2022-09-25T11:42:06.815Z,2.47
2022-09-25T11:44:46.182Z,4.17
2022-09-25T11:47:18.980Z,2.43
2022-09-25T11:49:48.466Z,5.87
2022-09-25T11:52:18.536Z,4.43
2022-09-25T11:55:04.146Z,2.60
2022-09-25T11:57:34.992Z,6.10
2022-09-25T12:00:20.261Z,2.67
2022-09-25T12:03:02.265Z,2.37
2022-09-25T12:05:48.234Z,5.17
2022-09-25T12:08:26.819Z,9.00
2022-09-25T12:11:03.821Z,4.97
2022-09-25T12:13:39.668Z,3.50
2022-09-25T12:16:07.233Z,3.40
2022-09-25T12:19:00.350Z,6.07
2022-09-25T12:21:34.235Z,3.50
2022-09-25T12:24:08.816Z,3.23
2022-09-25T12:26:44.674Z,7.03
2022-09-25T12:29:14.236Z,3.90
2022-09-25T12:31:53.519Z,5.13
2022-09-25T12:34:39.100Z,3.80
2022-09-25T12:37:27.558Z,4.00
2022-09-25T12:39:58.319Z,7.40
2022-09-25T12:42:31.816Z,6.23
2022-09-25T12:44:58.468Z,9.10
2022-09-25T12:47:37.625Z,3.43
2022-09-25T12:50:09.378Z,2.60
2022-09-25T12:52:40.299Z,8.33
2022-09-25T12:55:30.157Z,5.00
2022-09-25T12:58:08.377Z,2.20
2022-09-25T13:00:39.052Z,2.87
2022-09-25T13:03:13.859Z,4.30
2022-09-25T13:05:45.371Z,11.03
2022-09-25T13:08:29.589Z,3.50
2022-09-25T13:10:59.364Z,3.37
2022-09-25T13:13:28.021Z,2.87
2022-09-25T13:15:59.064Z,6.23
2022-09-25T13:18:27.161Z,2.77
2022-09-25T13:20:56.889Z,4.97
2022-09-25T13:23:28.178Z,1.57
2022-09-25T13:26:02.035Z,2.03
2022-09-25T13:28:37.598Z,6.40
2022-09-25T13:31:10.641Z,3.13
2022-09-25T13:33:41.732Z,8.53
2022-09-25T13:36:09.940Z,4.07
2022-09-25T13:39:04.221Z,2.97
2022-09-25T13:41:31.022Z,2.80
2022-09-25T13:44:16.902Z,3.77
2022-09-25T13:46:43.630Z,4.33
2022-09-25T13:49:29.293Z,4.57
2022-09-25T13:51:55.962Z,2.17
2022-09-25T13:54:22.617Z,2.40
2022-09-25T13:56:49.770Z,8.27
2022-09-25T13:59:16.479Z,5.37
2022-09-25T14:01:51.136Z,3.60
2022-09-25T14:04:25.367Z,4.30
2022-09-25T14:06:54.649Z,2.03
2022-09-25T14:09:23.534Z,2.13
2022-09-25T14:11:53.896Z,4.70
2022-09-25T14:14:26.614Z,2.07
2022-09-25T14:16:55.138Z,7.00
2022-09-25T14:19:27.054Z,5.37
2022-09-25T14:21:53.910Z,4.83
2022-09-25T14:24:21.818Z,5.67
2022-09-25T14:26:48.950Z,0.93
2022-09-25T14:29:22.228Z,4.63
2022-09-25T14:32:07.619Z,2.47
2022-09-25T14:34:46.690Z,5.20
2022-09-25T14:37:30.075Z,3.03
2022-09-25T14:40:16.153Z,1.13
2022-09-25T14:42:52.178Z,6.53
2022-09-25T14:45:31.144Z,4.80
2022-09-25T14:47:59.919Z,7.60
2022-09-25T14:50:30.857Z,4.80
2022-09-25T14:53:00.314Z,1.73
2022-09-25T14:55:31.317Z,3.67
2022-09-25T14:57:59.015Z,5.57
2022-09-25T15:00:25.769Z,1.77
2022-09-25T15:02:54.673Z,9.40
2022-09-25T15:05:27.443Z,2.83
2022-09-25T15:07:55.573Z,7.60
2022-09-25T15:10:35.626Z,3.60
2022-09-25T15:13:33.533Z,3.27
2022-09-25T15:16:20.493Z,7.37
2022-09-25T15:18:50.243Z,4.00
2022-09-25T15:21:21.832Z,4.00
2022-09-25T15:23:52.008Z,2.37
2022-09-25T15:26:19.069Z,1.73
2022-09-25T15:28:46.100Z,4.90
2022-09-25T15:31:12.934Z,3.17
2022-09-25T15:33:40.916Z,1.93
2022-09-25T15:36:13.712Z,5.13
2022-09-25T15:38:40.822Z,6.00
2022-09-25T15:41:08.358Z,7.27
2022-09-25T15:43:35.311Z,5.93
2022-09-25T15:46:08.141Z,5.90
2022-09-25T15:48:37.147Z,3.67
2022-09-25T15:51:06.669Z,2.70
2022-09-25T15:53:43.963Z,4.90
2022-09-25T15:56:27.013Z,3.13
2022-09-25T15:58:53.699Z,2.83
2022-09-25T16:01:43.822Z,2.83
2022-09-25T16:04:37.925Z,3.73
2022-09-25T16:07:24.261Z,5.40
2022-09-25T16:09:52.433Z,6.43
2022-09-25T16:12:19.336Z,2.50
2022-09-25T16:14:46.552Z,6.30
2022-09-25T16:17:35.210Z,7.40
2022-09-25T16:20:24.909Z,5.77
2022-09-25T16:22:55.482Z,4.80
2022-09-25T16:25:25.873Z,11.40
2022-09-25T16:27:54.851Z,2.20
2022-09-25T16:30:22.987Z,5.47
2022-09-25T16:32:51.620Z,4.93
2022-09-25T16:35:24.965Z,3.20
2022-09-25T16:37:52.614Z,2.53
2022-09-25T16:40:20.590Z,5.70
2022-09-25T16:42:47.515Z,6.23
2022-09-25T16:45:14.829Z,3.00
2022-09-25T16:47:45.582Z,1.03
2022-09-25T16:50:18.163Z,3.33
2022-09-25T16:52:45.220Z,2.93
2022-09-25T16:55:16.903Z,5.53
2022-09-25T16:57:46.181Z,3.37
2022-09-25T17:00:13.941Z,3.50
2022-09-25T17:02:41.992Z,2.10
2022-09-25T17:05:12.227Z,2.10
2022-09-25T17:07:38.849Z,16.90
2022-09-25T17:10:05.735Z,4.03
2022-09-25T17:12:32.575Z,8.00
2022-09-25T17:15:00.854Z,11.17
2022-09-25T17:17:29.530Z,20.43
2022-09-25T17:19:56.167Z,10.30
2022-09-25T17:22:29.508Z,14.50
2022-09-25T17:24:57.949Z,48.13
2022-09-25T17:27:24.510Z,31.73
2022-09-25T17:29:51.648Z,19.40
2022-09-25T17:32:18.283Z,14.57
2022-09-25T17:34:46.042Z,15.63
2022-09-25T17:37:12.890Z,15.43
2022-09-25T17:39:39.598Z,15.40
2022-09-25T17:42:06.308Z,16.30
2022-09-25T17:44:33.071Z,7.40
2022-09-25T17:47:01.052Z,6.83
2022-09-25T17:49:29.216Z,10.10
2022-09-25T17:51:55.899Z,10.07
2022-09-25T17:54:23.332Z,15.57
2022-09-25T17:56:50.426Z,10.40
2022-09-25T17:59:17.090Z,22.83
2022-09-25T18:01:43.883Z,23.30
2022-09-25T18:04:24.381Z,12.80
2022-09-25T18:06:51.888Z,11.43
2022-09-25T18:09:18.674Z,11.47
2022-09-25T18:11:45.393Z,11.03
2022-09-25T18:14:13.415Z,12.73
2022-09-25T18:16:44.025Z,12.70
2022-09-25T18:19:32.957Z,8.47
2022-09-25T18:22:18.981Z,7.07
2022-09-25T18:24:46.845Z,6.07
2022-09-25T18:27:14.990Z,9.03
2022-09-25T18:29:41.622Z,4.63
2022-09-25T18:32:08.315Z,8.00
2022-09-25T18:34:35.011Z,5.90
2022-09-25T18:37:01.880Z,4.60
2022-09-25T18:39:29.470Z,5.87
2022-09-25T18:41:56.286Z,6.43
2022-09-25T18:44:23.451Z,5.53
2022-09-25T18:46:51.132Z,8.70
2022-09-25T18:49:19.148Z,4.83
2022-09-25T18:51:45.981Z,6.17
2022-09-25T18:54:13.595Z,9.07
2022-09-25T18:56:40.770Z,30.73
2022-09-25T18:59:07.700Z,18.30
2022-09-25T19:01:35.722Z,131.93
2022-09-25T19:04:02.826Z,97.63
2022-09-25T19:06:29.482Z,130.97
2022-09-25T19:08:56.770Z,20.20
2022-09-25T19:11:24.578Z,24.40
2022-09-25T19:13:51.436Z,23.53
2022-09-25T19:16:18.534Z,20.87
2022-09-25T19:18:45.354Z,18.73
2022-09-25T19:21:13.686Z,12.70
2022-09-25T19:23:40.454Z,13.90
2022-09-25T19:26:07.434Z,10.67
2022-09-25T19:28:34.588Z,10.10
2022-09-25T19:31:01.216Z,10.53
2022-09-25T19:33:28.742Z,12.67
2022-09-25T19:35:59.397Z,20.97
2022-09-25T19:38:26.497Z,31.33
2022-09-25T19:40:53.398Z,34.83
2022-09-25T19:43:20.100Z,18.80
2022-09-25T19:45:50.841Z,26.30
2022-09-25T19:48:18.045Z,16.63
2022-09-25T19:50:44.769Z,22.83
2022-09-25T19:53:11.717Z,21.00
2022-09-25T19:55:40.869Z,22.83
2022-09-25T19:58:08.029Z,16.53
2022-09-25T20:00:35.322Z,32.93
2022-09-25T20:03:02.273Z,20.20
2022-09-25T20:05:28.922Z,15.00
2022-09-25T20:07:55.685Z,10.87
2022-09-25T20:10:22.401Z,20.13
2022-09-25T20:12:51.286Z,16.17
2022-09-25T20:15:17.994Z,9.73
2022-09-25T20:17:46.629Z,19.03
2022-09-25T20:20:13.466Z,23.23
2022-09-25T20:22:40.139Z,7.20
2022-09-25T20:25:10.867Z,19.00
2022-09-25T20:27:37.677Z,13.67
2022-09-25T20:30:05.865Z,16.20
2022-09-25T20:32:33.915Z,14.23
2022-09-25T20:35:00.677Z,8.07
2022-09-25T20:37:27.422Z,12.37
2022-09-25T20:39:54.468Z,11.10
2022-09-25T20:42:23.039Z,16.13
2022-09-25T20:44:49.953Z,9.30
2022-09-25T20:47:18.419Z,10.73
2022-09-25T20:49:45.132Z,12.23
2022-09-25T20:52:12.477Z,11.40
2022-09-25T20:54:41.681Z,12.23
2022-09-25T20:57:09.470Z,9.20
2022-09-25T20:59:36.338Z,15.53
2022-09-25T21:02:03.688Z,22.40
2022-09-25T21:04:30.992Z,8.13
2022-09-25T21:06:57.833Z,10.73
2022-09-25T21:09:25.993Z,12.83
2022-09-25T21:11:53.536Z,8.80
2022-09-25T21:14:21.478Z,9.93
2022-09-25T21:16:49.003Z,12.37
2022-09-25T21:19:16.540Z,12.67
2022-09-25T21:21:43.333Z,19.93
2022-09-25T21:24:12.771Z,11.40
2022-09-25T21:26:39.704Z,10.27
2022-09-25T21:29:06.469Z,8.83
2022-09-25T21:31:38.481Z,14.73
2022-09-25T21:34:06.522Z,19.03
2022-09-25T21:36:33.623Z,14.77
2022-09-25T21:39:00.541Z,22.73
2022-09-25T21:41:28.373Z,16.13
2022-09-25T21:43:55.876Z,12.43
2022-09-25T21:46:23.104Z,16.83
2022-09-25T21:48:54.418Z,12.73
2022-09-25T21:51:22.140Z,20.60
2022-09-25T21:53:49.188Z,21.63
2022-09-25T21:56:17.315Z,20.63
2022-09-25T21:58:43.897Z,20.73
2022-09-25T22:01:12.507Z,15.07
2022-09-25T22:03:41.933Z,11.50
2022-09-25T22:06:13.523Z,8.03
2022-09-25T22:08:41.283Z,9.57
2022-09-25T22:11:08.402Z,9.40
2022-09-25T22:13:36.015Z,11.57
2022-09-25T22:16:07.845Z,16.97
2022-09-25T22:18:40.040Z,12.93
2022-09-25T22:21:06.602Z,14.30
2022-09-25T22:23:33.250Z,30.43
2022-09-25T22:26:00.397Z,10.20
2022-09-25T22:28:27.407Z,13.83
2022-09-25T22:30:53.944Z,15.10
2022-09-25T22:33:20.522Z,15.20
2022-09-25T22:35:47.142Z,15.80
2022-09-25T22:38:13.707Z,13.10
2022-09-25T22:40:40.415Z,15.00
2022-09-25T22:43:07.175Z,15.33
2022-09-25T22:45:33.773Z,25.10
2022-09-25T22:48:00.570Z,14.30
2022-09-25T22:50:27.332Z,15.43
2022-09-25T22:52:58.333Z,10.50
2022-09-25T22:55:26.090Z,8.90
2022-09-25T22:57:52.667Z,13.27
2022-09-25T23:00:19.402Z,20.07
2022-09-25T23:02:45.903Z,9.40
2022-09-25T23:05:12.777Z,10.77
2022-09-25T23:07:39.638Z,13.67
2022-09-25T23:10:06.582Z,18.00
2022-09-25T23:12:34.145Z,14.67
2022-09-25T23:15:00.692Z,18.50
2022-09-25T23:17:27.242Z,17.17
2022-09-25T23:19:53.786Z,17.27
2022-09-25T23:22:20.413Z,17.10
2022-09-25T23:24:46.981Z,14.80
2022-09-25T23:27:13.476Z,17.83
2022-09-25T23:29:39.971Z,14.67
2022-09-25T23:32:08.088Z,13.03
2022-09-25T23:34:34.607Z,11.80
2022-09-25T23:37:01.121Z,13.10
2022-09-25T23:39:27.719Z,18.07
2022-09-25T23:41:54.226Z,14.00
2022-09-25T23:44:20.787Z,22.43
2022-09-25T23:46:49.382Z,13.63
2022-09-25T23:49:16.143Z,22.10
2022-09-25T23:51:42.843Z,18.43
2022-09-25T23:54:09.962Z,15.17
2022-09-25T23:56:36.571Z,8.90
2022-09-25T23:59:03.911Z,13.07
